Saint-Roch-Des-Aulnaies, Canada
Current Conditions -  °F | °C
As of 6:00 AM on Friday 24 Oct 2014 (Local Time) from CYQB Reporting Station
Broken Clouds Broken Clouds  
Wind Chill: 40°   Ceiling: 4800
Heat Index: 45°   Visibility: 15mi
Dew Point: 34°   Wind: 9mph
Humidity: 66%   Direction: 70°ENE
Pressure: 29.89"   Gusts: NA
Location:  47.32°N, 70.18°W
Report Text: CYQB 241000Z 07008KT 15SM BKN048 07/01 A2989 RMK SC7 SLP124
Loading
Personal Weather Stations






























Interactive Weather Map New forecast layout! Learn more

10-Day Weather Forecast

Advertisements
Track Severe Weather on mobile